sensor_id;sensor_type;location;lat;lon;timestamp;temperature;humidity
26212;DHT22;13951;49.516;6.094;2023-12-07T00:01:44;4.00;99.90
26212;DHT22;13951;49.516;6.094;2023-12-07T00:04:17;3.90;99.90
26212;DHT22;13951;49.516;6.094;2023-12-07T00:06:51;3.90;99.90
26212;DHT22;13951;49.516;6.094;2023-12-07T00:09:25;3.90;99.90
26212;DHT22;13951;49.516;6.094;2023-12-07T00:11:58;3.90;99.90
26212;DHT22;13951;49.516;6.094;2023-12-07T00:14:31;3.90;99.90
26212;DHT22;13951;49.516;6.094;2023-12-07T00:17:04;3.80;99.90
26212;DHT22;13951;49.516;6.094;2023-12-07T00:19:37;3.90;99.90
26212;DHT22;13951;49.516;6.094;2023-12-07T00:22:11;3.80;99.90
26212;DHT22;13951;49.516;6.094;2023-12-07T00:24:44;3.80;99.90
26212;DHT22;13951;49.516;6.094;2023-12-07T00:27:18;3.80;99.90
26212;DHT22;13951;49.516;6.094;2023-12-07T00:29:52;3.80;99.90
26212;DHT22;13951;49.516;6.094;2023-12-07T00:32:25;3.80;99.90
26212;DHT22;13951;49.516;6.094;2023-12-07T00:35:00;3.80;99.90
26212;DHT22;13951;49.516;6.094;2023-12-07T00:37:33;3.80;99.90
26212;DHT22;13951;49.516;6.094;2023-12-07T00:40:06;3.80;99.90
26212;DHT22;13951;49.516;6.094;2023-12-07T00:42:40;3.70;99.90
26212;DHT22;13951;49.516;6.094;2023-12-07T00:45:14;3.70;99.90
26212;DHT22;13951;49.516;6.094;2023-12-07T00:47:48;3.70;99.90
26212;DHT22;13951;49.516;6.094;2023-12-07T00:50:21;3.70;99.90
26212;DHT22;13951;49.516;6.094;2023-12-07T00:52:55;3.70;99.90
26212;DHT22;13951;49.516;6.094;2023-12-07T00:55:28;3.70;99.90
26212;DHT22;13951;49.516;6.094;2023-12-07T00:58:02;3.70;99.90
26212;DHT22;13951;49.516;6.094;2023-12-07T01:00:35;3.70;99.90
26212;DHT22;13951;49.516;6.094;2023-12-07T01:03:08;3.70;99.90
26212;DHT22;13951;49.516;6.094;2023-12-07T01:05:41;3.70;99.90
26212;DHT22;13951;49.516;6.094;2023-12-07T01:08:14;3.70;99.90
26212;DHT22;13951;49.516;6.094;2023-12-07T01:10:47;3.70;99.90
26212;DHT22;13951;49.516;6.094;2023-12-07T01:13:21;3.70;99.90
26212;DHT22;13951;49.516;6.094;2023-12-07T01:15:54;3.70;99.90
26212;DHT22;13951;49.516;6.094;2023-12-07T01:18:28;3.70;99.90
26212;DHT22;13951;49.516;6.094;2023-12-07T01:21:01;3.60;99.90
26212;DHT22;13951;49.516;6.094;2023-12-07T01:23:34;3.60;99.90
26212;DHT22;13951;49.516;6.094;2023-12-07T01:26:07;3.60;99.90
26212;DHT22;13951;49.516;6.094;2023-12-07T01:28:41;3.60;99.90
26212;DHT22;13951;49.516;6.094;2023-12-07T01:31:14;3.60;99.90
26212;DHT22;13951;49.516;6.094;2023-12-07T01:33:47;3.60;99.90
26212;DHT22;13951;49.516;6.094;2023-12-07T01:36:20;3.60;99.90
26212;DHT22;13951;49.516;6.094;2023-12-07T01:38:53;3.50;99.90
26212;DHT22;13951;49.516;6.094;2023-12-07T01:41:26;3.50;99.90
26212;DHT22;13951;49.516;6.094;2023-12-07T01:43:59;3.50;99.90
26212;DHT22;13951;49.516;6.094;2023-12-07T01:46:33;3.50;99.90
26212;DHT22;13951;49.516;6.094;2023-12-07T01:49:07;3.50;99.90
26212;DHT22;13951;49.516;6.094;2023-12-07T01:51:40;3.50;99.90
26212;DHT22;13951;49.516;6.094;2023-12-07T01:54:13;3.50;99.90
26212;DHT22;13951;49.516;6.094;2023-12-07T01:56:47;3.50;99.90
26212;DHT22;13951;49.516;6.094;2023-12-07T01:59:20;3.50;99.90
26212;DHT22;13951;49.516;6.094;2023-12-07T02:01:54;3.50;99.90
26212;DHT22;13951;49.516;6.094;2023-12-07T02:04:27;3.50;99.90
26212;DHT22;13951;49.516;6.094;2023-12-07T02:07:01;3.60;99.90
26212;DHT22;13951;49.516;6.094;2023-12-07T02:09:35;3.50;99.90
26212;DHT22;13951;49.516;6.094;2023-12-07T02:12:08;3.50;99.90
26212;DHT22;13951;49.516;6.094;2023-12-07T02:14:42;3.60;99.90
26212;DHT22;13951;49.516;6.094;2023-12-07T02:17:26;3.60;99.90
26212;DHT22;13951;49.516;6.094;2023-12-07T02:22:48;3.60;99.90
26212;DHT22;13951;49.516;6.094;2023-12-07T02:29:13;3.60;99.90
26212;DHT22;13951;49.516;6.094;2023-12-07T02:31:47;3.50;99.90
26212;DHT22;13951;49.516;6.094;2023-12-07T02:34:20;3.40;99.90
26212;DHT22;13951;49.516;6.094;2023-12-07T02:36:57;3.40;99.90
26212;DHT22;13951;49.516;6.094;2023-12-07T02:39:32;3.40;99.90
26212;DHT22;13951;49.516;6.094;2023-12-07T02:42:05;3.40;99.90
26212;DHT22;13951;49.516;6.094;2023-12-07T02:44:40;3.50;99.90
26212;DHT22;13951;49.516;6.094;2023-12-07T02:47:14;3.40;99.90
26212;DHT22;13951;49.516;6.094;2023-12-07T02:49:47;3.30;99.90
26212;DHT22;13951;49.516;6.094;2023-12-07T02:52:20;3.30;99.90
26212;DHT22;13951;49.516;6.094;2023-12-07T02:54:54;3.30;99.90
26212;DHT22;13951;49.516;6.094;2023-12-07T02:57:27;3.30;99.90
26212;DHT22;13951;49.516;6.094;2023-12-07T03:00:00;3.30;99.90
26212;DHT22;13951;49.516;6.094;2023-12-07T03:02:35;3.40;99.90
26212;DHT22;13951;49.516;6.094;2023-12-07T03:05:08;3.40;99.90
26212;DHT22;13951;49.516;6.094;2023-12-07T03:07:41;3.40;99.90
26212;DHT22;13951;49.516;6.094;2023-12-07T03:10:14;3.40;99.90
26212;DHT22;13951;49.516;6.094;2023-12-07T03:12:47;3.40;99.90
26212;DHT22;13951;49.516;6.094;2023-12-07T03:15:21;3.40;99.90
26212;DHT22;13951;49.516;6.094;2023-12-07T03:17:54;3.30;99.90
26212;DHT22;13951;49.516;6.094;2023-12-07T03:20:27;3.20;99.90
26212;DHT22;13951;49.516;6.094;2023-12-07T03:23:00;3.20;99.90
26212;DHT22;13951;49.516;6.094;2023-12-07T03:25:33;3.20;99.90
26212;DHT22;13951;49.516;6.094;2023-12-07T03:28:07;3.10;99.90
26212;DHT22;13951;49.516;6.094;2023-12-07T03:30:40;3.10;99.90
26212;DHT22;13951;49.516;6.094;2023-12-07T03:33:13;3.10;99.90
26212;DHT22;13951;49.516;6.094;2023-12-07T03:35:47;3.10;99.90
26212;DHT22;13951;49.516;6.094;2023-12-07T03:38:20;3.10;99.90
26212;DHT22;13951;49.516;6.094;2023-12-07T03:40:53;3.10;99.90
26212;DHT22;13951;49.516;6.094;2023-12-07T03:43:26;3.00;99.90
26212;DHT22;13951;49.516;6.094;2023-12-07T03:45:59;3.00;99.90
26212;DHT22;13951;49.516;6.094;2023-12-07T03:48:33;3.00;99.90
26212;DHT22;13951;49.516;6.094;2023-12-07T03:51:07;2.90;99.90
26212;DHT22;13951;49.516;6.094;2023-12-07T03:53:41;3.00;99.90
26212;DHT22;13951;49.516;6.094;2023-12-07T03:56:28;3.00;99.90
26212;DHT22;13951;49.516;6.094;2023-12-07T03:59:02;3.10;99.90
26212;DHT22;13951;49.516;6.094;2023-12-07T04:01:35;3.10;99.90
26212;DHT22;13951;49.516;6.094;2023-12-07T04:04:09;3.10;99.90
26212;DHT22;13951;49.516;6.094;2023-12-07T04:06:42;3.20;99.90
26212;DHT22;13951;49.516;6.094;2023-12-07T04:09:15;3.20;99.90
26212;DHT22;13951;49.516;6.094;2023-12-07T04:11:48;3.20;99.90
26212;DHT22;13951;49.516;6.094;2023-12-07T04:14:21;3.20;99.90
26212;DHT22;13951;49.516;6.094;2023-12-07T04:16:55;3.20;99.90
26212;DHT22;13951;49.516;6.094;2023-12-07T04:19:28;3.20;99.90
26212;DHT22;13951;49.516;6.094;2023-12-07T04:22:01;3.20;99.90
26212;DHT22;13951;49.516;6.094;2023-12-07T04:24:35;3.20;99.90
26212;DHT22;13951;49.516;6.094;2023-12-07T04:27:08;3.20;99.90
26212;DHT22;13951;49.516;6.094;2023-12-07T04:29:41;3.30;99.90
26212;DHT22;13951;49.516;6.094;2023-12-07T04:32:14;3.30;99.90
26212;DHT22;13951;49.516;6.094;2023-12-07T04:34:47;3.30;99.90
26212;DHT22;13951;49.516;6.094;2023-12-07T04:37:21;3.30;99.90
26212;DHT22;13951;49.516;6.094;2023-12-07T04:39:54;3.30;99.90
26212;DHT22;13951;49.516;6.094;2023-12-07T04:42:27;3.20;99.90
26212;DHT22;13951;49.516;6.094;2023-12-07T04:45:00;3.20;99.90
26212;DHT22;13951;49.516;6.094;2023-12-07T04:47:33;3.20;99.90
26212;DHT22;13951;49.516;6.094;2023-12-07T04:50:07;3.20;99.90
26212;DHT22;13951;49.516;6.094;2023-12-07T04:52:42;3.30;99.90
26212;DHT22;13951;49.516;6.094;2023-12-07T04:55:16;3.30;99.90
26212;DHT22;13951;49.516;6.094;2023-12-07T04:57:49;3.30;99.90
26212;DHT22;13951;49.516;6.094;2023-12-07T05:00:22;3.30;99.90
26212;DHT22;13951;49.516;6.094;2023-12-07T05:02:55;3.20;99.90
26212;DHT22;13951;49.516;6.094;2023-12-07T05:05:29;3.10;99.90
26212;DHT22;13951;49.516;6.094;2023-12-07T05:08:02;3.10;99.90
26212;DHT22;13951;49.516;6.094;2023-12-07T05:10:36;3.10;99.90
26212;DHT22;13951;49.516;6.094;2023-12-07T05:13:09;3.10;99.90
26212;DHT22;13951;49.516;6.094;2023-12-07T05:15:42;3.00;99.90
26212;DHT22;13951;49.516;6.094;2023-12-07T05:18:15;3.00;99.90
26212;DHT22;13951;49.516;6.094;2023-12-07T05:20:48;3.00;99.90
26212;DHT22;13951;49.516;6.094;2023-12-07T05:23:22;2.90;99.90
26212;DHT22;13951;49.516;6.094;2023-12-07T05:25:55;2.90;99.90
26212;DHT22;13951;49.516;6.094;2023-12-07T05:28:28;2.80;99.90
26212;DHT22;13951;49.516;6.094;2023-12-07T05:31:01;2.80;99.90
26212;DHT22;13951;49.516;6.094;2023-12-07T05:33:35;2.80;99.90
26212;DHT22;13951;49.516;6.094;2023-12-07T05:36:08;2.80;99.90
26212;DHT22;13951;49.516;6.094;2023-12-07T05:38:41;2.80;99.90
26212;DHT22;13951;49.516;6.094;2023-12-07T05:41:15;2.80;99.90
26212;DHT22;13951;49.516;6.094;2023-12-07T05:43:53;2.80;99.90
26212;DHT22;13951;49.516;6.094;2023-12-07T05:46:27;2.80;99.90
26212;DHT22;13951;49.516;6.094;2023-12-07T05:49:00;2.80;99.90
26212;DHT22;13951;49.516;6.094;2023-12-07T05:51:34;2.90;99.90
26212;DHT22;13951;49.516;6.094;2023-12-07T05:54:08;2.90;99.90
26212;DHT22;13951;49.516;6.094;2023-12-07T05:56:41;2.90;99.90
26212;DHT22;13951;49.516;6.094;2023-12-07T05:59:16;2.90;99.90
26212;DHT22;13951;49.516;6.094;2023-12-07T06:01:52;2.80;99.90
26212;DHT22;13951;49.516;6.094;2023-12-07T06:04:26;2.70;99.90
26212;DHT22;13951;49.516;6.094;2023-12-07T06:06:59;2.80;99.90
26212;DHT22;13951;49.516;6.094;2023-12-07T06:09:33;2.80;99.90
26212;DHT22;13951;49.516;6.094;2023-12-07T06:12:07;2.70;99.90
26212;DHT22;13951;49.516;6.094;2023-12-07T06:14:40;2.70;99.90
26212;DHT22;13951;49.516;6.094;2023-12-07T06:17:13;2.70;99.90
26212;DHT22;13951;49.516;6.094;2023-12-07T06:19:46;2.70;99.90
26212;DHT22;13951;49.516;6.094;2023-12-07T06:22:20;2.60;99.90
26212;DHT22;13951;49.516;6.094;2023-12-07T06:24:53;2.50;99.90
26212;DHT22;13951;49.516;6.094;2023-12-07T06:27:26;2.60;99.90
26212;DHT22;13951;49.516;6.094;2023-12-07T06:30:00;2.60;99.90
26212;DHT22;13951;49.516;6.094;2023-12-07T06:32:33;2.60;99.90
26212;DHT22;13951;49.516;6.094;2023-12-07T06:35:07;2.50;99.90
26212;DHT22;13951;49.516;6.094;2023-12-07T06:37:40;2.60;99.90
26212;DHT22;13951;49.516;6.094;2023-12-07T06:40:15;2.60;99.90
26212;DHT22;13951;49.516;6.094;2023-12-07T06:42:48;2.60;99.90
26212;DHT22;13951;49.516;6.094;2023-12-07T06:45:22;2.60;99.90
26212;DHT22;13951;49.516;6.094;2023-12-07T06:47:55;2.60;99.90
26212;DHT22;13951;49.516;6.094;2023-12-07T06:50:29;2.60;99.90
26212;DHT22;13951;49.516;6.094;2023-12-07T06:53:02;2.60;99.90
26212;DHT22;13951;49.516;6.094;2023-12-07T06:55:36;2.50;99.90
26212;DHT22;13951;49.516;6.094;2023-12-07T06:58:15;2.50;99.90
26212;DHT22;13951;49.516;6.094;2023-12-07T07:00:48;2.60;99.90
26212;DHT22;13951;49.516;6.094;2023-12-07T07:03:23;2.50;99.90
26212;DHT22;13951;49.516;6.094;2023-12-07T07:05:58;2.60;99.90
26212;DHT22;13951;49.516;6.094;2023-12-07T07:08:32;2.60;99.90
26212;DHT22;13951;49.516;6.094;2023-12-07T07:11:13;2.50;99.90
26212;DHT22;13951;49.516;6.094;2023-12-07T07:13:53;2.50;99.90
26212;DHT22;13951;49.516;6.094;2023-12-07T07:16:27;2.50;99.90
26212;DHT22;13951;49.516;6.094;2023-12-07T07:19:00;2.50;99.90
26212;DHT22;13951;49.516;6.094;2023-12-07T07:21:34;2.50;99.90
26212;DHT22;13951;49.516;6.094;2023-12-07T07:24:07;2.50;99.90
26212;DHT22;13951;49.516;6.094;2023-12-07T07:26:41;2.40;99.90
26212;DHT22;13951;49.516;6.094;2023-12-07T07:29:15;2.50;99.90
26212;DHT22;13951;49.516;6.094;2023-12-07T07:31:48;2.50;99.90
26212;DHT22;13951;49.516;6.094;2023-12-07T07:34:21;2.50;99.90
26212;DHT22;13951;49.516;6.094;2023-12-07T07:36:54;2.40;99.90
26212;DHT22;13951;49.516;6.094;2023-12-07T07:39:27;2.40;99.90
26212;DHT22;13951;49.516;6.094;2023-12-07T07:42:01;2.40;99.90
26212;DHT22;13951;49.516;6.094;2023-12-07T07:44:34;2.30;99.90
26212;DHT22;13951;49.516;6.094;2023-12-07T07:47:07;2.40;99.90
26212;DHT22;13951;49.516;6.094;2023-12-07T07:49:41;2.40;99.90
26212;DHT22;13951;49.516;6.094;2023-12-07T07:52:14;2.30;99.90
26212;DHT22;13951;49.516;6.094;2023-12-07T07:54:48;2.20;99.90
26212;DHT22;13951;49.516;6.094;2023-12-07T07:57:21;2.20;99.90
26212;DHT22;13951;49.516;6.094;2023-12-07T07:59:55;2.20;99.90
26212;DHT22;13951;49.516;6.094;2023-12-07T08:02:28;2.10;99.90
26212;DHT22;13951;49.516;6.094;2023-12-07T08:05:01;2.00;99.90
26212;DHT22;13951;49.516;6.094;2023-12-07T08:07:34;2.00;99.90
26212;DHT22;13951;49.516;6.094;2023-12-07T08:10:08;2.00;99.90
26212;DHT22;13951;49.516;6.094;2023-12-07T08:12:42;2.10;99.90
26212;DHT22;13951;49.516;6.094;2023-12-07T08:15:15;2.10;99.90
26212;DHT22;13951;49.516;6.094;2023-12-07T08:17:48;2.10;99.90
26212;DHT22;13951;49.516;6.094;2023-12-07T08:20:22;2.10;99.90
26212;DHT22;13951;49.516;6.094;2023-12-07T08:22:55;2.10;99.90
26212;DHT22;13951;49.516;6.094;2023-12-07T08:25:28;2.00;99.90
26212;DHT22;13951;49.516;6.094;2023-12-07T08:28:02;2.00;99.90
26212;DHT22;13951;49.516;6.094;2023-12-07T08:30:36;2.00;99.90
26212;DHT22;13951;49.516;6.094;2023-12-07T08:33:09;2.00;99.90
26212;DHT22;13951;49.516;6.094;2023-12-07T08:35:42;1.90;99.90
26212;DHT22;13951;49.516;6.094;2023-12-07T08:38:15;1.90;99.90
26212;DHT22;13951;49.516;6.094;2023-12-07T08:40:49;1.90;99.90
26212;DHT22;13951;49.516;6.094;2023-12-07T08:43:22;1.90;99.90
26212;DHT22;13951;49.516;6.094;2023-12-07T08:45:58;1.80;99.90
26212;DHT22;13951;49.516;6.094;2023-12-07T08:48:33;1.90;99.90
26212;DHT22;13951;49.516;6.094;2023-12-07T08:51:10;1.90;99.90
26212;DHT22;13951;49.516;6.094;2023-12-07T08:53:43;1.90;99.90
26212;DHT22;13951;49.516;6.094;2023-12-07T08:56:19;1.80;99.90
26212;DHT22;13951;49.516;6.094;2023-12-07T08:58:53;1.80;99.90
26212;DHT22;13951;49.516;6.094;2023-12-07T09:01:26;1.80;99.90
26212;DHT22;13951;49.516;6.094;2023-12-07T09:04:05;1.80;99.90
26212;DHT22;13951;49.516;6.094;2023-12-07T09:06:38;1.70;99.90
26212;DHT22;13951;49.516;6.094;2023-12-07T09:09:11;1.70;99.90
26212;DHT22;13951;49.516;6.094;2023-12-07T09:11:44;1.70;99.90
26212;DHT22;13951;49.516;6.094;2023-12-07T09:14:17;1.60;99.90
26212;DHT22;13951;49.516;6.094;2023-12-07T09:16:50;1.60;99.90
26212;DHT22;13951;49.516;6.094;2023-12-07T09:19:25;1.60;99.90
26212;DHT22;13951;49.516;6.094;2023-12-07T09:21:58;1.60;99.90
26212;DHT22;13951;49.516;6.094;2023-12-07T09:24:31;1.60;99.90
26212;DHT22;13951;49.516;6.094;2023-12-07T09:27:04;1.60;99.90
26212;DHT22;13951;49.516;6.094;2023-12-07T09:29:38;1.50;99.90
26212;DHT22;13951;49.516;6.094;2023-12-07T09:32:11;1.50;99.90
26212;DHT22;13951;49.516;6.094;2023-12-07T09:34:44;1.50;99.90
26212;DHT22;13951;49.516;6.094;2023-12-07T09:37:17;1.50;99.90
26212;DHT22;13951;49.516;6.094;2023-12-07T09:39:51;1.40;99.90
26212;DHT22;13951;49.516;6.094;2023-12-07T09:42:24;1.40;99.90
26212;DHT22;13951;49.516;6.094;2023-12-07T09:45:08;1.40;99.90
26212;DHT22;13951;49.516;6.094;2023-12-07T09:47:42;1.40;99.90
26212;DHT22;13951;49.516;6.094;2023-12-07T09:50:21;1.40;99.90
26212;DHT22;13951;49.516;6.094;2023-12-07T09:52:57;1.40;99.90
26212;DHT22;13951;49.516;6.094;2023-12-07T09:55:34;1.40;99.90
26212;DHT22;13951;49.516;6.094;2023-12-07T09:58:08;1.50;99.90
26212;DHT22;13951;49.516;6.094;2023-12-07T10:00:42;1.50;99.90
26212;DHT22;13951;49.516;6.094;2023-12-07T10:03:22;1.60;99.90
26212;DHT22;13951;49.516;6.094;2023-12-07T10:05:58;1.60;99.90
26212;DHT22;13951;49.516;6.094;2023-12-07T10:08:33;1.70;99.90
26212;DHT22;13951;49.516;6.094;2023-12-07T10:11:11;1.70;99.90
26212;DHT22;13951;49.516;6.094;2023-12-07T10:13:48;1.80;99.90
26212;DHT22;13951;49.516;6.094;2023-12-07T10:16:21;1.80;99.90
26212;DHT22;13951;49.516;6.094;2023-12-07T10:18:54;1.80;99.90
26212;DHT22;13951;49.516;6.094;2023-12-07T10:21:32;1.90;99.90
26212;DHT22;13951;49.516;6.094;2023-12-07T10:24:06;1.90;99.90
26212;DHT22;13951;49.516;6.094;2023-12-07T10:26:39;2.00;99.90
26212;DHT22;13951;49.516;6.094;2023-12-07T10:29:13;2.00;99.90
26212;DHT22;13951;49.516;6.094;2023-12-07T10:32:02;2.00;99.90
26212;DHT22;13951;49.516;6.094;2023-12-07T10:34:37;2.00;99.90
26212;DHT22;13951;49.516;6.094;2023-12-07T10:37:11;1.90;99.90
26212;DHT22;13951;49.516;6.094;2023-12-07T10:39:44;1.90;99.90
26212;DHT22;13951;49.516;6.094;2023-12-07T10:42:18;1.90;99.90
26212;DHT22;13951;49.516;6.094;2023-12-07T10:44:57;1.90;99.90
26212;DHT22;13951;49.516;6.094;2023-12-07T10:47:33;1.90;99.90
26212;DHT22;13951;49.516;6.094;2023-12-07T10:50:09;1.80;99.90
26212;DHT22;13951;49.516;6.094;2023-12-07T10:52:52;1.80;99.90
26212;DHT22;13951;49.516;6.094;2023-12-07T10:55:29;1.90;99.90
26212;DHT22;13951;49.516;6.094;2023-12-07T10:58:04;1.90;99.90
26212;DHT22;13951;49.516;6.094;2023-12-07T11:00:42;1.90;99.90
26212;DHT22;13951;49.516;6.094;2023-12-07T11:03:18;1.90;99.90
26212;DHT22;13951;49.516;6.094;2023-12-07T11:05:54;1.90;99.90
26212;DHT22;13951;49.516;6.094;2023-12-07T11:08:57;2.00;99.90
26212;DHT22;13951;49.516;6.094;2023-12-07T11:11:46;2.10;99.90
26212;DHT22;13951;49.516;6.094;2023-12-07T11:14:21;2.10;99.90
26212;DHT22;13951;49.516;6.094;2023-12-07T11:16:55;2.30;99.90
26212;DHT22;13951;49.516;6.094;2023-12-07T11:22:15;2.40;99.90
26212;DHT22;13951;49.516;6.094;2023-12-07T11:24:55;2.40;99.90
26212;DHT22;13951;49.516;6.094;2023-12-07T11:27:32;2.40;99.90
26212;DHT22;13951;49.516;6.094;2023-12-07T11:30:06;2.40;99.90
26212;DHT22;13951;49.516;6.094;2023-12-07T11:32:40;2.30;99.90
26212;DHT22;13951;49.516;6.094;2023-12-07T11:35:14;2.40;99.90
26212;DHT22;13951;49.516;6.094;2023-12-07T11:38:07;2.40;99.90
26212;DHT22;13951;49.516;6.094;2023-12-07T11:40:41;2.40;99.90
26212;DHT22;13951;49.516;6.094;2023-12-07T11:43:41;2.40;99.90
26212;DHT22;13951;49.516;6.094;2023-12-07T11:46:16;2.50;99.90
26212;DHT22;13951;49.516;6.094;2023-12-07T11:48:49;2.50;99.90
26212;DHT22;13951;49.516;6.094;2023-12-07T11:51:23;2.50;99.90
26212;DHT22;13951;49.516;6.094;2023-12-07T11:53:57;2.50;99.90
26212;DHT22;13951;49.516;6.094;2023-12-07T11:56:30;2.60;99.90
26212;DHT22;13951;49.516;6.094;2023-12-07T11:59:04;2.60;99.90
26212;DHT22;13951;49.516;6.094;2023-12-07T12:01:37;2.60;99.90
26212;DHT22;13951;49.516;6.094;2023-12-07T12:04:11;2.70;99.90
26212;DHT22;13951;49.516;6.094;2023-12-07T12:06:44;2.70;99.90
26212;DHT22;13951;49.516;6.094;2023-12-07T12:09:18;2.60;99.90
26212;DHT22;13951;49.516;6.094;2023-12-07T12:12:02;2.60;99.90
26212;DHT22;13951;49.516;6.094;2023-12-07T12:14:40;2.60;99.90
26212;DHT22;13951;49.516;6.094;2023-12-07T12:17:17;2.60;99.90
26212;DHT22;13951;49.516;6.094;2023-12-07T12:19:50;2.50;99.90
26212;DHT22;13951;49.516;6.094;2023-12-07T12:22:28;2.50;99.90
26212;DHT22;13951;49.516;6.094;2023-12-07T12:25:01;2.60;99.90
26212;DHT22;13951;49.516;6.094;2023-12-07T12:27:35;2.60;99.90
26212;DHT22;13951;49.516;6.094;2023-12-07T12:30:09;2.60;99.90
26212;DHT22;13951;49.516;6.094;2023-12-07T12:32:44;2.50;99.90
26212;DHT22;13951;49.516;6.094;2023-12-07T12:35:18;2.60;99.90
26212;DHT22;13951;49.516;6.094;2023-12-07T12:37:51;2.60;99.90
26212;DHT22;13951;49.516;6.094;2023-12-07T12:40:27;2.60;99.90
26212;DHT22;13951;49.516;6.094;2023-12-07T12:43:02;2.70;99.90
26212;DHT22;13951;49.516;6.094;2023-12-07T12:45:36;2.70;99.90
26212;DHT22;13951;49.516;6.094;2023-12-07T12:48:09;2.70;99.90
26212;DHT22;13951;49.516;6.094;2023-12-07T12:50:42;2.70;99.90
26212;DHT22;13951;49.516;6.094;2023-12-07T12:53:16;2.70;99.90
26212;DHT22;13951;49.516;6.094;2023-12-07T12:55:49;2.70;99.90
26212;DHT22;13951;49.516;6.094;2023-12-07T12:58:22;2.80;99.90
26212;DHT22;13951;49.516;6.094;2023-12-07T13:00:56;2.80;99.90
26212;DHT22;13951;49.516;6.094;2023-12-07T13:03:29;2.80;99.90
26212;DHT22;13951;49.516;6.094;2023-12-07T13:06:03;2.70;99.90
26212;DHT22;13951;49.516;6.094;2023-12-07T13:08:36;2.70;99.90
26212;DHT22;13951;49.516;6.094;2023-12-07T13:11:09;2.80;99.90
26212;DHT22;13951;49.516;6.094;2023-12-07T13:13:47;2.80;99.90
26212;DHT22;13951;49.516;6.094;2023-12-07T13:16:21;2.80;99.90
26212;DHT22;13951;49.516;6.094;2023-12-07T13:18:55;2.80;99.90
26212;DHT22;13951;49.516;6.094;2023-12-07T13:21:29;2.80;99.90
26212;DHT22;13951;49.516;6.094;2023-12-07T13:24:02;2.80;99.90
26212;DHT22;13951;49.516;6.094;2023-12-07T13:26:40;2.80;99.90
26212;DHT22;13951;49.516;6.094;2023-12-07T13:29:14;2.80;99.90
26212;DHT22;13951;49.516;6.094;2023-12-07T13:32:00;2.80;99.90
26212;DHT22;13951;49.516;6.094;2023-12-07T13:34:33;2.80;99.90
26212;DHT22;13951;49.516;6.094;2023-12-07T13:37:07;2.80;99.90
26212;DHT22;13951;49.516;6.094;2023-12-07T13:39:40;2.80;99.90
26212;DHT22;13951;49.516;6.094;2023-12-07T13:42:15;2.80;99.90
26212;DHT22;13951;49.516;6.094;2023-12-07T13:44:48;2.80;99.90
26212;DHT22;13951;49.516;6.094;2023-12-07T13:47:21;2.80;99.90
26212;DHT22;13951;49.516;6.094;2023-12-07T13:49:59;2.80;99.90
26212;DHT22;13951;49.516;6.094;2023-12-07T13:52:33;2.80;99.90
26212;DHT22;13951;49.516;6.094;2023-12-07T13:55:06;2.80;99.90
26212;DHT22;13951;49.516;6.094;2023-12-07T13:57:40;2.80;99.90
26212;DHT22;13951;49.516;6.094;2023-12-07T14:00:14;2.80;99.90
26212;DHT22;13951;49.516;6.094;2023-12-07T14:02:47;2.80;99.90
26212;DHT22;13951;49.516;6.094;2023-12-07T14:05:20;2.80;99.90
26212;DHT22;13951;49.516;6.094;2023-12-07T14:07:56;2.80;99.90
26212;DHT22;13951;49.516;6.094;2023-12-07T14:10:29;2.80;99.90
26212;DHT22;13951;49.516;6.094;2023-12-07T14:13:04;2.80;99.90
26212;DHT22;13951;49.516;6.094;2023-12-07T14:15:40;2.80;99.90
26212;DHT22;13951;49.516;6.094;2023-12-07T14:18:17;2.80;99.90
26212;DHT22;13951;49.516;6.094;2023-12-07T14:20:50;2.80;99.90
26212;DHT22;13951;49.516;6.094;2023-12-07T14:23:43;2.80;99.90
26212;DHT22;13951;49.516;6.094;2023-12-07T14:26:26;2.80;99.90
26212;DHT22;13951;49.516;6.094;2023-12-07T14:28:59;2.80;99.90
26212;DHT22;13951;49.516;6.094;2023-12-07T14:31:34;2.80;99.90
26212;DHT22;13951;49.516;6.094;2023-12-07T14:34:09;2.90;99.90
26212;DHT22;13951;49.516;6.094;2023-12-07T14:36:46;2.80;99.90
26212;DHT22;13951;49.516;6.094;2023-12-07T14:39:19;2.80;99.90
26212;DHT22;13951;49.516;6.094;2023-12-07T14:41:53;2.80;99.90
26212;DHT22;13951;49.516;6.094;2023-12-07T14:44:29;2.80;99.90
26212;DHT22;13951;49.516;6.094;2023-12-07T14:47:02;2.90;99.90
26212;DHT22;13951;49.516;6.094;2023-12-07T14:49:36;2.90;99.90
26212;DHT22;13951;49.516;6.094;2023-12-07T14:52:09;2.80;99.90
26212;DHT22;13951;49.516;6.094;2023-12-07T14:54:42;2.80;99.90
26212;DHT22;13951;49.516;6.094;2023-12-07T14:57:15;2.80;99.90
26212;DHT22;13951;49.516;6.094;2023-12-07T14:59:48;2.80;99.90
26212;DHT22;13951;49.516;6.094;2023-12-07T15:02:24;2.80;99.90
26212;DHT22;13951;49.516;6.094;2023-12-07T15:04:57;2.80;99.90
26212;DHT22;13951;49.516;6.094;2023-12-07T15:07:30;2.80;99.90
26212;DHT22;13951;49.516;6.094;2023-12-07T15:10:04;2.80;99.90
26212;DHT22;13951;49.516;6.094;2023-12-07T15:12:38;2.80;99.90
26212;DHT22;13951;49.516;6.094;2023-12-07T15:15:11;2.80;99.90
26212;DHT22;13951;49.516;6.094;2023-12-07T15:17:44;2.80;99.90
26212;DHT22;13951;49.516;6.094;2023-12-07T15:20:19;2.90;99.90
26212;DHT22;13951;49.516;6.094;2023-12-07T15:22:52;2.90;99.90
26212;DHT22;13951;49.516;6.094;2023-12-07T15:25:25;2.90;99.90
26212;DHT22;13951;49.516;6.094;2023-12-07T15:27:58;2.80;99.90
26212;DHT22;13951;49.516;6.094;2023-12-07T15:30:31;2.80;99.90
26212;DHT22;13951;49.516;6.094;2023-12-07T15:33:07;2.80;99.90
26212;DHT22;13951;49.516;6.094;2023-12-07T15:35:40;2.80;99.90
26212;DHT22;13951;49.516;6.094;2023-12-07T15:38:14;2.70;99.90
26212;DHT22;13951;49.516;6.094;2023-12-07T15:40:47;2.80;99.90
26212;DHT22;13951;49.516;6.094;2023-12-07T15:43:21;2.80;99.90
26212;DHT22;13951;49.516;6.094;2023-12-07T15:45:54;2.80;99.90
26212;DHT22;13951;49.516;6.094;2023-12-07T15:48:27;2.80;99.90
26212;DHT22;13951;49.516;6.094;2023-12-07T15:51:00;2.80;99.90
26212;DHT22;13951;49.516;6.094;2023-12-07T15:53:33;2.80;99.90
26212;DHT22;13951;49.516;6.094;2023-12-07T15:56:07;2.70;99.90
26212;DHT22;13951;49.516;6.094;2023-12-07T15:58:40;2.70;99.90
26212;DHT22;13951;49.516;6.094;2023-12-07T16:01:13;2.70;99.90
26212;DHT22;13951;49.516;6.094;2023-12-07T16:03:46;2.70;99.90
26212;DHT22;13951;49.516;6.094;2023-12-07T16:06:20;2.70;99.90
26212;DHT22;13951;49.516;6.094;2023-12-07T16:08:53;2.60;99.90
26212;DHT22;13951;49.516;6.094;2023-12-07T16:11:27;2.60;99.90
26212;DHT22;13951;49.516;6.094;2023-12-07T16:14:00;2.60;99.90
26212;DHT22;13951;49.516;6.094;2023-12-07T16:16:33;2.60;99.90
26212;DHT22;13951;49.516;6.094;2023-12-07T16:19:07;2.60;99.90
26212;DHT22;13951;49.516;6.094;2023-12-07T16:21:40;2.60;99.90
26212;DHT22;13951;49.516;6.094;2023-12-07T16:24:14;2.50;99.90
26212;DHT22;13951;49.516;6.094;2023-12-07T16:26:48;2.50;99.90
26212;DHT22;13951;49.516;6.094;2023-12-07T16:29:23;2.50;99.90
26212;DHT22;13951;49.516;6.094;2023-12-07T16:31:56;2.50;99.90
26212;DHT22;13951;49.516;6.094;2023-12-07T16:34:30;2.50;99.90
26212;DHT22;13951;49.516;6.094;2023-12-07T16:37:04;2.50;99.90
26212;DHT22;13951;49.516;6.094;2023-12-07T16:39:41;2.50;99.90